ROMMA est une association bénévole à but non lucratif. Votre soutien est indispensable : ADHERER à ROMMA ou FAIRE un DON

Crest - (26, Drôme)

Vallée de la Drôme (315 m)   Longitude: 5°2' E   Latitude: 44°44' N Station partenaire n°62
 

Détail journalier du     <<     >>

Température Precipitation Humidité Pression Vent Dir Rafale Dir. rafale Ensol.
Heure (°C) (mm) (%) (hPa) (km/h) (km/h) (min)
01:00 15.705910171SSE5SSE0
02:00 14.606110172SE11SE0
03:00 14.706210171SE3SE0
04:00 13.706410171SE6SE0
05:00 13.906410162SSE6SSE0
06:00 13.106710161SSE5SSE0
07:00 12.907010171SSE5SSE0
08:00 14.106810161SSE3SSE8
09:00 17.705410171SE6SE14
10:00 20.105210175ESE18SSO26
11:00 22.104610175S13S19
12:00 21.405010176S16S3
13:00 22.604810174SSO18NE0
14:00 25.204410175S19ENE38
15:00 25.204310169N24NE44
16:00 26.703510168SSO26N60
17:00 25.3039101513N37N54
18:00 25.3038101616N34N59
19:00 24.3042101617N35N44
20:00 22.9045101716N32N14
21:00 21.6048101715N31N0
22:00 20.9045101811N23N0
23:00 19.704910187N18NNE0
minuit 18.105710189SSO21NNE0

Graphique du 15-08-2019

 

Serveur OMMA